Time;durP1;ratioP1;P1;durP2;ratioP2;P2;SDS_P1;SDS_P2;PMS_P1;PMS_P2;Temp;Humidity;BMP_temperature;BMP_pressure;BME280_temperature;BME280_humidity;BME280_pressure;Samples;Min_cycle;Max_cycle;Signal;HPM_P1;HPM_P2
2022/06/07 00:01:11;;;;;;;3.90;1.57;;;;;;;;;;5061557;28;20298;-77
2022/06/07 00:03:38;;;;;;;4.37;1.77;;;;;;;;;;5058912;28;20770;-76
2022/06/07 00:06:05;;;;;;;6.57;1.70;;;;;;;;;;5060965;28;20304;-77
2022/06/07 00:08:33;;;;;;;2.77;1.63;;;;;;;;;;5065575;28;20210;-77
2022/06/07 00:11:00;;;;;;;2.57;1.13;;;;;;;;;;5057807;28;20333;-77
2022/06/07 00:13:27;;;;;;;3.70;1.30;;;;;;;;;;5062920;28;20210;-76
2022/06/07 00:15:54;;;;;;;3.53;1.70;;;;;;;;;;5055540;28;20309;-77
2022/06/07 00:18:23;;;;;;;5.40;1.30;;;;;;;;;;5058234;28;20731;-77
2022/06/07 00:20:50;;;;;;;3.13;1.60;;;;;;;;;;5057137;28;20202;-76
2022/06/07 00:23:19;;;;;;;2.77;1.50;;;;;;;;;;5058453;28;20257;-76
2022/06/07 00:25:47;;;;;;;8.30;1.60;;;;;;;;;;5057872;28;20601;-76
2022/06/07 00:28:14;;;;;;;4.43;1.40;;;;;;;;;;5057299;28;20659;-77
2022/06/07 00:30:42;;;;;;;1.87;1.20;;;;;;;;;;5058150;28;20281;-75
2022/06/07 00:33:09;;;;;;;2.17;1.50;;;;;;;;;;5056401;28;20263;-75
2022/06/07 00:35:38;;;;;;;2.73;1.27;;;;;;;;;;5057484;28;20586;-76
2022/06/07 00:38:05;;;;;;;3.80;1.43;;;;;;;;;;5057818;28;20302;-76
2022/06/07 00:40:32;;;;;;;4.17;1.57;;;;;;;;;;5059147;28;20210;-76
2022/06/07 00:43:00;;;;;;;3.37;1.20;;;;;;;;;;5059826;28;20635;-76
2022/06/07 00:45:27;;;;;;;3.40;1.63;;;;;;;;;;5059552;28;20229;-76
2022/06/07 00:47:54;;;;;;;15.17;2.17;;;;;;;;;;5061890;28;20213;-76
2022/06/07 00:50:24;;;;;;;2.37;1.50;;;;;;;;;;5057157;28;20289;-76
2022/06/07 00:52:53;;;;;;;3.87;1.30;;;;;;;;;;5059238;28;20299;-76
2022/06/07 00:55:20;;;;;;;2.73;1.60;;;;;;;;;;5058799;28;20928;-77
2022/06/07 00:57:47;;;;;;;3.17;1.60;;;;;;;;;;5065352;28;20275;-76
2022/06/07 01:00:16;;;;;;;2.60;1.10;;;;;;;;;;5062589;28;20206;-76
2022/06/07 01:02:43;;;;;;;2.97;1.70;;;;;;;;;;5063439;28;20285;-76
2022/06/07 01:05:10;;;;;;;2.17;1.30;;;;;;;;;;5060848;28;20341;-75
2022/06/07 01:13:09;;;;;;;5.00;1.60;;;;;;;;;;5056231;28;20706;-76
2022/06/07 01:15:36;;;;;;;2.23;1.30;;;;;;;;;;5056930;28;20218;-76
2022/06/07 01:18:03;;;;;;;6.87;1.87;;;;;;;;;;5055544;28;20203;-77
2022/06/07 01:20:31;;;;;;;2.63;1.70;;;;;;;;;;5058592;28;20314;-76
2022/06/07 01:22:59;;;;;;;4.97;1.50;;;;;;;;;;5056052;28;20238;-77
2022/06/07 01:25:26;;;;;;;4.47;1.40;;;;;;;;;;5057059;28;20255;-76
2022/06/07 01:27:53;;;;;;;7.37;1.57;;;;;;;;;;5058055;28;20297;-76
2022/06/07 01:30:21;;;;;;;3.17;1.63;;;;;;;;;;5058109;28;20285;-77
2022/06/07 01:32:48;;;;;;;2.37;1.50;;;;;;;;;;5056804;28;20203;-77
2022/06/07 01:35:15;;;;;;;2.97;1.30;;;;;;;;;;5058658;28;20233;-75
2022/06/07 01:37:43;;;;;;;7.03;1.80;;;;;;;;;;5055189;28;20211;-77
2022/06/07 01:42:57;;;;;;;3.47;1.30;;;;;;;;;;5058988;28;20209;-77
2022/06/07 01:45:24;;;;;;;4.00;1.53;;;;;;;;;;5055603;28;20316;-77
2022/06/07 01:47:51;;;;;;;4.43;1.30;;;;;;;;;;5055567;28;20290;-76
2022/06/07 01:50:19;;;;;;;2.30;1.30;;;;;;;;;;5058542;28;20668;-77
2022/06/07 01:52:46;;;;;;;2.47;1.40;;;;;;;;;;5060111;28;20216;-76
2022/06/07 01:55:15;;;;;;;4.33;1.40;;;;;;;;;;5059230;28;20314;-77
2022/06/07 01:57:42;;;;;;;3.37;1.30;;;;;;;;;;5058051;28;20199;-77
2022/06/07 02:00:10;;;;;;;4.70;1.50;;;;;;;;;;5058925;28;20215;-76
2022/06/07 02:02:37;;;;;;;2.03;1.40;;;;;;;;;;5060891;28;20260;-77
2022/06/07 02:05:04;;;;;;;1.83;1.30;;;;;;;;;;5059143;28;20229;-77
2022/06/07 02:07:31;;;;;;;2.90;1.43;;;;;;;;;;5063997;28;20241;-77
2022/06/07 02:09:58;;;;;;;2.83;1.57;;;;;;;;;;5061116;28;20290;-77
2022/06/07 02:12:27;;;;;;;2.87;1.57;;;;;;;;;;5059196;28;20767;-77
2022/06/07 02:14:54;;;;;;;3.77;1.40;;;;;;;;;;5058482;28;20314;-77
2022/06/07 02:17:21;;;;;;;6.43;1.50;;;;;;;;;;5061587;28;20292;-77
2022/06/07 02:19:48;;;;;;;6.37;1.40;;;;;;;;;;5060414;28;20293;-78
2022/06/07 02:22:15;;;;;;;5.17;1.50;;;;;;;;;;5060954;28;20274;-78
2022/06/07 02:24:43;;;;;;;2.07;1.20;;;;;;;;;;5061745;28;20430;-78
2022/06/07 02:27:11;;;;;;;3.23;1.37;;;;;;;;;;5060189;28;20296;-78
2022/06/07 02:29:42;;;;;;;6.87;1.27;;;;;;;;;;5059018;28;20298;-78
2022/06/07 02:32:14;;;;;;;3.60;1.30;;;;;;;;;;5059941;28;20303;-77
2022/06/07 02:34:45;;;;;;;3.00;1.50;;;;;;;;;;5060591;28;20288;-77
2022/06/07 02:37:13;;;;;;;3.57;1.50;;;;;;;;;;5057835;28;20631;-78
2022/06/07 02:39:41;;;;;;;1.70;1.20;;;;;;;;;;5063843;28;20214;-78
2022/06/07 02:42:09;;;;;;;4.37;1.47;;;;;;;;;;5059867;28;20224;-77
2022/06/07 02:44:36;;;;;;;5.87;1.63;;;;;;;;;;5060984;28;20256;-78
2022/06/07 02:47:05;;;;;;;2.57;1.50;;;;;;;;;;5059485;28;20848;-77
2022/06/07 02:49:32;;;;;;;2.10;1.50;;;;;;;;;;5059887;28;20238;-76
2022/06/07 02:51:59;;;;;;;6.00;1.73;;;;;;;;;;5059015;28;20216;-78
2022/06/07 02:54:27;;;;;;;2.03;1.40;;;;;;;;;;5063682;28;20290;-78
2022/06/07 02:56:55;;;;;;;4.93;1.43;;;;;;;;;;5056857;28;20221;-77
2022/06/07 02:59:22;;;;;;;2.90;1.37;;;;;;;;;;5058396;28;20303;-77
2022/06/07 03:01:49;;;;;;;3.50;1.40;;;;;;;;;;5056735;28;20237;-77
2022/06/07 03:04:18;;;;;;;2.53;1.83;;;;;;;;;;5059043;28;20226;-77
2022/06/07 03:06:46;;;;;;;1.67;1.20;;;;;;;;;;5055421;28;20253;-77
2022/06/07 03:09:13;;;;;;;2.17;1.40;;;;;;;;;;5056672;28;20207;-77
2022/06/07 03:11:41;;;;;;;3.77;1.40;;;;;;;;;;5073863;22;20314;-77
2022/06/07 03:14:08;;;;;;;3.47;1.60;;;;;;;;;;5063457;28;20209;-75
2022/06/07 03:16:35;;;;;;;4.50;1.63;;;;;;;;;;5060954;28;20699;-74
2022/06/07 03:19:02;;;;;;;5.00;1.50;;;;;;;;;;5066722;28;20234;-75
2022/06/07 03:21:31;;;;;;;3.93;1.40;;;;;;;;;;5059866;28;20289;-75
2022/06/07 03:23:58;;;;;;;5.10;1.77;;;;;;;;;;5063213;28;20242;-75
2022/06/07 03:26:25;;;;;;;3.60;1.83;;;;;;;;;;5061379;28;20289;-76
2022/06/07 03:28:52;;;;;;;2.50;1.43;;;;;;;;;;5062596;28;20233;-75
2022/06/07 03:31:19;;;;;;;2.30;1.50;;;;;;;;;;5066834;28;20531;-76
2022/06/07 03:33:47;;;;;;;4.93;1.37;;;;;;;;;;5066561;28;20813;-75
2022/06/07 03:36:16;;;;;;;2.17;1.40;;;;;;;;;;5067975;28;20679;-76
2022/06/07 03:38:45;;;;;;;3.87;2.00;;;;;;;;;;5070223;28;20211;-76
2022/06/07 03:41:16;;;;;;;2.57;1.70;;;;;;;;;;5065014;28;20647;-75
2022/06/07 03:43:43;;;;;;;1.63;1.23;;;;;;;;;;5067231;28;20747;-75
2022/06/07 03:46:12;;;;;;;3.43;1.37;;;;;;;;;;5068685;28;20273;-75
2022/06/07 03:48:39;;;;;;;2.53;1.77;;;;;;;;;;5064864;28;20301;-75
2022/06/07 03:51:07;;;;;;;2.60;1.47;;;;;;;;;;5066683;28;20265;-76
2022/06/07 03:53:34;;;;;;;6.27;1.60;;;;;;;;;;5067566;28;20210;-76
2022/06/07 03:56:03;;;;;;;5.93;1.50;;;;;;;;;;5059198;28;20233;-75
2022/06/07 03:58:31;;;;;;;2.47;1.60;;;;;;;;;;5055956;28;20257;-76
2022/06/07 04:00:59;;;;;;;5.47;1.70;;;;;;;;;;5058945;28;20260;-75
2022/06/07 04:03:26;;;;;;;2.60;1.40;;;;;;;;;;5056582;28;20287;-74
2022/06/07 04:05:54;;;;;;;2.47;1.40;;;;;;;;;;5060203;28;20305;-76
2022/06/07 04:08:22;;;;;;;1.23;1.13;;;;;;;;;;5054665;28;20290;-76
2022/06/07 04:10:49;;;;;;;2.80;1.67;;;;;;;;;;5063284;28;20708;-76
2022/06/07 04:13:18;;;;;;;2.57;1.40;;;;;;;;;;5059384;28;20290;-74
2022/06/07 04:15:47;;;;;;;5.30;1.63;;;;;;;;;;5057204;28;20261;-76
2022/06/07 04:18:14;;;;;;;6.10;1.47;;;;;;;;;;5057580;28;20648;-75
2022/06/07 04:20:42;;;;;;;1.87;1.10;;;;;;;;;;5060803;28;20316;-75
2022/06/07 04:23:11;;;;;;;3.87;1.00;;;;;;;;;;5062312;28;20291;-76
2022/06/07 04:25:40;;;;;;;4.50;1.20;;;;;;;;;;5062719;28;20303;-74
2022/06/07 04:28:07;;;;;;;5.17;1.30;;;;;;;;;;5057228;28;20290;-76
2022/06/07 04:30:36;;;;;;;4.43;1.10;;;;;;;;;;5065386;28;20230;-76
2022/06/07 04:33:03;;;;;;;5.70;1.20;;;;;;;;;;5060196;28;20297;-76
2022/06/07 04:35:30;;;;;;;1.97;1.10;;;;;;;;;;5061574;28;20714;-76
2022/06/07 04:37:58;;;;;;;6.00;1.23;;;;;;;;;;5066497;28;20206;-76
2022/06/07 04:40:25;;;;;;;4.40;1.23;;;;;;;;;;5059337;28;20206;-76
2022/06/07 04:42:52;;;;;;;3.63;1.33;;;;;;;;;;5058657;28;20317;-75
2022/06/07 04:45:20;;;;;;;4.70;1.40;;;;;;;;;;5060297;28;20266;-75
2022/06/07 04:47:49;;;;;;;4.23;1.10;;;;;;;;;;5061528;28;20281;-76
2022/06/07 04:50:17;;;;;;;4.63;1.40;;;;;;;;;;5058788;28;20307;-75
2022/06/07 04:52:45;;;;;;;3.40;1.43;;;;;;;;;;5060536;28;20198;-75
2022/06/07 04:55:12;;;;;;;2.53;1.30;;;;;;;;;;5063286;28;20772;-76
2022/06/07 04:57:40;;;;;;;5.10;1.40;;;;;;;;;;5051774;28;20198;-75
2022/06/07 05:00:08;;;;;;;8.27;1.30;;;;;;;;;;5061457;28;20241;-75
2022/06/07 05:02:36;;;;;;;4.53;1.33;;;;;;;;;;5058210;28;20203;-74
2022/06/07 05:05:05;;;;;;;3.47;1.30;;;;;;;;;;5058494;28;20230;-76
2022/06/07 05:07:32;;;;;;;4.00;1.20;;;;;;;;;;5056226;28;20298;-75
2022/06/07 05:09:59;;;;;;;4.63;1.20;;;;;;;;;;5057462;28;20345;-75
2022/06/07 05:12:27;;;;;;;3.90;1.47;;;;;;;;;;5061652;28;20305;-76
2022/06/07 05:14:55;;;;;;;3.70;1.30;;;;;;;;;;5059597;28;20231;-76
2022/06/07 05:17:22;;;;;;;3.07;1.53;;;;;;;;;;5060015;28;20234;-76
2022/06/07 05:19:49;;;;;;;3.30;1.20;;;;;;;;;;5063568;28;20208;-76
2022/06/07 05:22:18;;;;;;;5.47;1.47;;;;;;;;;;5062079;28;20304;-76
2022/06/07 05:24:45;;;;;;;1.83;1.17;;;;;;;;;;5062652;28;20231;-75
2022/06/07 05:27:15;;;;;;;5.60;1.60;;;;;;;;;;5060555;28;20211;-75
2022/06/07 05:29:45;;;;;;;4.63;1.60;;;;;;;;;;5061856;28;20241;-75
2022/06/07 05:32:13;;;;;;;4.30;1.70;;;;;;;;;;5064114;28;20213;-75
2022/06/07 05:34:40;;;;;;;2.97;1.50;;;;;;;;;;5061287;28;20249;-74
2022/06/07 05:37:07;;;;;;;4.23;1.47;;;;;;;;;;5061233;28;20294;-74
2022/06/07 05:39:36;;;;;;;4.43;1.40;;;;;;;;;;5060234;28;20668;-75
2022/06/07 05:42:03;;;;;;;3.93;1.30;;;;;;;;;;5064342;28;20305;-75
2022/06/07 05:44:30;;;;;;;5.83;1.63;;;;;;;;;;5064666;28;20226;-76
2022/06/07 05:46:59;;;;;;;4.03;1.47;;;;;;;;;;5062796;28;20373;-76
2022/06/07 05:49:27;;;;;;;12.03;1.57;;;;;;;;;;5066773;28;20217;-75
2022/06/07 05:51:54;;;;;;;4.53;1.50;;;;;;;;;;5058949;28;20736;-76
2022/06/07 05:54:21;;;;;;;3.77;1.40;;;;;;;;;;5062349;28;20237;-76
2022/06/07 05:56:49;;;;;;;5.40;1.63;;;;;;;;;;5059773;28;20711;-76
2022/06/07 05:59:18;;;;;;;3.30;1.37;;;;;;;;;;5059999;28;20360;-75
2022/06/07 06:01:45;;;;;;;4.13;1.67;;;;;;;;;;5060638;28;20202;-76
2022/06/07 06:04:12;;;;;;;3.00;1.30;;;;;;;;;;5059449;28;20650;-75
2022/06/07 06:06:39;;;;;;;5.03;1.30;;;;;;;;;;5063052;28;20223;-76
2022/06/07 06:11:54;;;;;;;8.03;1.53;;;;;;;;;;5058622;28;20632;-76
2022/06/07 06:14:21;;;;;;;7.60;1.70;;;;;;;;;;5061043;28;20241;-76
2022/06/07 06:16:49;;;;;;;3.20;1.30;;;;;;;;;;5059040;28;20205;-76
2022/06/07 06:19:16;;;;;;;6.33;1.60;;;;;;;;;;5063539;28;20203;-75
2022/06/07 06:21:45;;;;;;;8.60;1.77;;;;;;;;;;5061181;28;20309;-76
2022/06/07 06:24:12;;;;;;;12.33;1.97;;;;;;;;;;5058328;28;20266;-75
2022/06/07 06:26:40;;;;;;;5.63;1.70;;;;;;;;;;5059778;28;20229;-76
2022/06/07 06:29:09;;;;;;;8.77;2.03;;;;;;;;;;5059844;28;20206;-76
2022/06/07 06:31:36;;;;;;;12.50;2.23;;;;;;;;;;5062127;28;20206;-76
2022/06/07 06:34:04;;;;;;;11.83;2.13;;;;;;;;;;5060055;28;20218;-76
2022/06/07 06:36:31;;;;;;;8.90;1.63;;;;;;;;;;5062338;28;20230;-76
2022/06/07 06:38:59;;;;;;;8.20;1.70;;;;;;;;;;5063697;28;20285;-76
2022/06/07 06:41:27;;;;;;;8.47;1.40;;;;;;;;;;5065058;28;20304;-75
2022/06/07 06:43:55;;;;;;;5.97;1.30;;;;;;;;;;5060597;28;20234;-76
2022/06/07 06:46:24;;;;;;;8.43;1.20;;;;;;;;;;5056400;28;20652;-76
2022/06/07 06:48:52;;;;;;;6.68;1.13;;;;;;;;;;5062233;28;20226;-76
2022/06/07 06:51:22;;;;;;;4.47;1.20;;;;;;;;;;5064005;28;20310;-76
2022/06/07 06:53:49;;;;;;;5.00;1.15;;;;;;;;;;5058720;28;20293;-76
2022/06/07 06:56:18;;;;;;;2.50;0.80;;;;;;;;;;5060673;28;20331;-77
2022/06/07 06:58:45;;;;;;;2.05;0.70;;;;;;;;;;5061065;28;20727;-78
2022/06/07 07:01:14;;;;;;;2.77;0.70;;;;;;;;;;5067701;28;20653;-76
2022/06/07 07:03:44;;;;;;;6.03;0.77;;;;;;;;;;5061079;28;20206;-77
2022/06/07 07:06:12;;;;;;;1.70;0.57;;;;;;;;;;5064331;28;20234;-76
2022/06/07 07:08:42;;;;;;;1.53;0.50;;;;;;;;;;5057317;28;20745;-75
2022/06/07 07:11:11;;;;;;;3.60;0.80;;;;;;;;;;5060401;28;20378;-76
2022/06/07 07:13:38;;;;;;;5.10;0.70;;;;;;;;;;5057953;28;20207;-75
2022/06/07 07:16:08;;;;;;;4.23;0.60;;;;;;;;;;5064017;28;20311;-76
2022/06/07 07:18:35;;;;;;;2.53;0.60;;;;;;;;;;5061848;28;20322;-75
2022/06/07 07:21:05;;;;;;;4.50;0.80;;;;;;;;;;5063168;28;20242;-76
2022/06/07 07:23:33;;;;;;;3.00;0.70;;;;;;;;;;5063030;28;20243;-75
2022/06/07 07:26:06;;;;;;;1.17;0.53;;;;;;;;;;5056803;28;20320;-77
2022/06/07 07:28:33;;;;;;;0.63;0.40;;;;;;;;;;5062491;28;20220;-76
2022/06/07 07:31:01;;;;;;;1.40;0.43;;;;;;;;;;5064474;28;20205;-76
2022/06/07 07:33:28;;;;;;;1.30;0.40;;;;;;;;;;5059858;28;20209;-76
2022/06/07 07:35:56;;;;;;;4.20;0.70;;;;;;;;;;5056587;28;20316;-75
2022/06/07 07:38:25;;;;;;;1.70;0.57;;;;;;;;;;5060226;28;20204;-76
2022/06/07 07:40:52;;;;;;;5.97;0.77;;;;;;;;;;5056269;28;20667;-76
2022/06/07 07:43:20;;;;;;;1.53;0.60;;;;;;;;;;5059940;28;20735;-75
2022/06/07 07:45:47;;;;;;;1.70;0.40;;;;;;;;;;5053953;28;20325;-75
2022/06/07 07:48:16;;;;;;;1.43;0.50;;;;;;;;;;5063235;28;20662;-75
2022/06/07 07:50:43;;;;;;;2.77;0.53;;;;;;;;;;5056530;28;20210;-75
2022/06/07 07:53:10;;;;;;;3.10;0.70;;;;;;;;;;5063784;28;20265;-76
2022/06/07 07:55:44;;;;;;;1.20;0.60;;;;;;;;;;5057828;28;20240;-76
2022/06/07 07:58:11;;;;;;;1.80;0.50;;;;;;;;;;5061723;28;20233;-74
2022/06/07 08:00:39;;;;;;;2.67;0.60;;;;;;;;;;5061164;28;20213;-74
2022/06/07 08:03:06;;;;;;;2.67;0.60;;;;;;;;;;5059765;28;20314;-75
2022/06/07 08:05:33;;;;;;;0.90;0.53;;;;;;;;;;5064578;28;20287;-76
2022/06/07 08:08:00;;;;;;;1.10;0.40;;;;;;;;;;5068554;28;20248;-75
2022/06/07 08:10:29;;;;;;;0.57;0.50;;;;;;;;;;5064462;28;20281;-75
2022/06/07 08:12:58;;;;;;;1.73;0.60;;;;;;;;;;5070522;28;20213;-75
2022/06/07 08:15:26;;;;;;;2.40;0.50;;;;;;;;;;5065754;28;20257;-75
2022/06/07 08:17:54;;;;;;;1.57;0.70;;;;;;;;;;5064254;28;20297;-75
2022/06/07 08:20:22;;;;;;;2.20;0.60;;;;;;;;;;5063485;28;20684;-76
2022/06/07 08:22:49;;;;;;;2.43;0.77;;;;;;;;;;5064089;28;20293;-76
2022/06/07 08:25:17;;;;;;;2.17;0.67;;;;;;;;;;5064802;28;20232;-75
2022/06/07 08:27:44;;;;;;;4.20;0.60;;;;;;;;;;5064851;28;20248;-75
2022/06/07 08:30:14;;;;;;;0.37;0.30;;;;;;;;;;5066013;28;20715;-75
2022/06/07 08:32:41;;;;;;;2.43;0.60;;;;;;;;;;5064322;28;20194;-76
2022/06/07 08:37:56;;;;;;;5.27;0.50;;;;;;;;;;5065576;28;20217;-76
2022/06/07 08:40:27;;;;;;;2.70;0.70;;;;;;;;;;5069691;28;20315;-76
2022/06/07 08:42:55;;;;;;;3.27;0.70;;;;;;;;;;5064195;28;20235;-75
2022/06/07 08:45:26;;;;;;;1.20;0.50;;;;;;;;;;5066520;28;20293;-75
2022/06/07 08:47:54;;;;;;;2.60;0.80;;;;;;;;;;5059479;28;20227;-75
2022/06/07 08:50:24;;;;;;;1.73;0.73;;;;;;;;;;5060099;28;20210;-75
2022/06/07 08:52:53;;;;;;;2.47;0.50;;;;;;;;;;5059288;28;20672;-75
2022/06/07 08:55:22;;;;;;;2.33;0.43;;;;;;;;;;5061285;28;20349;-76
2022/06/07 08:57:54;;;;;;;1.60;0.50;;;;;;;;;;5060766;28;20206;-75
2022/06/07 09:00:23;;;;;;;5.20;0.70;;;;;;;;;;5063077;28;20210;-75
2022/06/07 09:03:13;;;;;;;0.93;0.57;;;;;;;;;;5059411;28;20770;-75
2022/06/07 09:05:40;;;;;;;2.67;1.03;;;;;;;;;;5059326;28;20245;-75
2022/06/07 09:08:07;;;;;;;3.90;0.80;;;;;;;;;;5059752;28;20268;-75
2022/06/07 09:13:07;;;;;;;1.83;0.60;;;;;;;;;;5110450;22;20241;-82
2022/06/07 09:15:36;;;;;;;2.73;0.70;;;;;;;;;;5068232;28;21126;-82
2022/06/07 09:18:06;;;;;;;4.30;0.50;;;;;;;;;;5068758;28;20261;-81
2022/06/07 09:20:36;;;;;;;2.53;0.70;;;;;;;;;;5066904;28;20194;-81
2022/06/07 09:23:05;;;;;;;2.83;0.60;;;;;;;;;;5071662;28;20243;-81
2022/06/07 09:25:36;;;;;;;3.13;0.60;;;;;;;;;;5065310;28;20263;-81
2022/06/07 09:28:04;;;;;;;1.60;0.60;;;;;;;;;;5071790;28;20230;-81
2022/06/07 09:30:38;;;;;;;2.93;0.77;;;;;;;;;;5070279;28;20674;-81
2022/06/07 09:33:10;;;;;;;1.83;0.60;;;;;;;;;;5065770;28;20210;-80
2022/06/07 09:35:41;;;;;;;2.13;0.60;;;;;;;;;;5071041;28;20206;-81
2022/06/07 09:38:11;;;;;;;3.00;0.50;;;;;;;;;;5072125;28;20210;-81
2022/06/07 09:40:43;;;;;;;1.77;0.63;;;;;;;;;;5066021;28;20272;-81
2022/06/07 09:43:18;;;;;;;2.10;0.60;;;;;;;;;;5072291;28;20244;-82
2022/06/07 09:45:53;;;;;;;3.37;0.70;;;;;;;;;;5071751;28;20460;-82
2022/06/07 09:48:25;;;;;;;1.40;0.50;;;;;;;;;;5068004;28;20244;-81
2022/06/07 09:51:00;;;;;;;2.13;0.53;;;;;;;;;;5068168;28;20276;-82
2022/06/07 09:53:27;;;;;;;1.90;0.60;;;;;;;;;;5068312;28;20264;-81
2022/06/07 09:56:04;;;;;;;0.80;0.50;;;;;;;;;;5073849;28;20210;-82
2022/06/07 09:58:41;;;;;;;1.80;0.90;;;;;;;;;;5070185;28;20218;-82
2022/06/07 10:01:14;;;;;;;2.90;0.50;;;;;;;;;;5069364;28;20234;-82
2022/06/07 10:03:44;;;;;;;1.50;0.50;;;;;;;;;;5070418;28;20210;-82
2022/06/07 10:06:19;;;;;;;3.03;0.43;;;;;;;;;;5074195;28;20234;-82
2022/06/07 10:08:49;;;;;;;2.47;0.57;;;;;;;;;;5072930;28;20198;-82
2022/06/07 10:11:21;;;;;;;2.27;0.60;;;;;;;;;;5070137;28;20335;-80
2022/06/07 10:13:55;;;;;;;2.50;0.60;;;;;;;;;;5068358;28;20244;-82
2022/06/07 10:16:29;;;;;;;2.30;0.60;;;;;;;;;;5066479;28;20239;-81
2022/06/07 10:19:03;;;;;;;0.63;0.40;;;;;;;;;;5069096;28;20212;-82
2022/06/07 10:21:49;;;;;;;1.53;0.60;;;;;;;;;;5066489;28;20237;-83
2022/06/07 10:24:21;;;;;;;2.10;0.47;;;;;;;;;;5066778;28;20244;-81
2022/06/07 10:26:57;;;;;;;2.70;0.70;;;;;;;;;;5073177;28;20282;-81
2022/06/07 10:29:31;;;;;;;1.63;0.70;;;;;;;;;;5083477;28;20225;-81
2022/06/07 10:32:02;;;;;;;1.77;0.67;;;;;;;;;;5077314;28;20798;-81
2022/06/07 10:34:35;;;;;;;1.20;0.70;;;;;;;;;;5065567;28;20381;-82
2022/06/07 10:37:07;;;;;;;4.73;0.57;;;;;;;;;;5066381;28;20198;-81
2022/06/07 10:39:40;;;;;;;0.70;0.50;;;;;;;;;;5067327;28;20205;-81
2022/06/07 10:42:13;;;;;;;2.57;0.67;;;;;;;;;;5065909;28;20238;-81
2022/06/07 10:44:43;;;;;;;4.77;0.80;;;;;;;;;;5069031;28;20226;-81
2022/06/07 10:47:15;;;;;;;4.20;0.83;;;;;;;;;;5072204;28;20265;-81
2022/06/07 10:49:47;;;;;;;2.60;0.50;;;;;;;;;;5066144;28;20225;-81
2022/06/07 10:52:24;;;;;;;1.10;0.50;;;;;;;;;;5066325;28;20249;-82
2022/06/07 10:54:58;;;;;;;4.67;0.70;;;;;;;;;;5070198;28;20224;-81
2022/06/07 10:57:27;;;;;;;3.13;0.67;;;;;;;;;;5063872;28;20211;-80
2022/06/07 10:59:54;;;;;;;2.57;0.50;;;;;;;;;;5063962;28;21368;-79
2022/06/07 11:02:25;;;;;;;3.03;0.73;;;;;;;;;;5062855;28;20275;-81
2022/06/07 11:10:47;;;;;;;3.07;0.70;;;;;;;;;;5062419;28;20913;-81
2022/06/07 11:13:19;;;;;;;1.30;0.57;;;;;;;;;;5064613;28;20226;-81
2022/06/07 11:15:51;;;;;;;3.77;0.70;;;;;;;;;;5064345;28;20602;-80
2022/06/07 11:18:21;;;;;;;2.67;0.57;;;;;;;;;;5077961;28;20206;-80
2022/06/07 11:20:52;;;;;;;3.83;0.70;;;;;;;;;;5075235;28;20230;-80
2022/06/07 11:23:24;;;;;;;6.47;0.80;;;;;;;;;;5074506;28;20218;-81
2022/06/07 11:26:00;;;;;;;2.30;0.70;;;;;;;;;;5066057;28;20206;-82
2022/06/07 11:28:28;;;;;;;1.63;0.63;;;;;;;;;;5074945;28;20218;-80
2022/06/07 11:31:00;;;;;;;1.63;0.50;;;;;;;;;;5065640;28;20216;-80
2022/06/07 11:33:32;;;;;;;2.23;0.70;;;;;;;;;;5076551;28;20228;-83
2022/06/07 11:36:08;;;;;;;3.63;0.70;;;;;;;;;;5078886;28;20266;-82
2022/06/07 11:38:56;;;;;;;1.63;0.70;;;;;;;;;;5083780;28;20541;-81
2022/06/07 11:41:44;;;;;;;0.97;0.50;;;;;;;;;;5069626;28;20253;-81
2022/06/07 11:44:30;;;;;;;5.23;0.90;;;;;;;;;;5068405;28;20568;-80
2022/06/07 11:46:59;;;;;;;1.57;0.77;;;;;;;;;;5065189;28;20226;-81
2022/06/07 11:49:43;;;;;;;1.40;0.67;;;;;;;;;;5067820;28;20216;-81
2022/06/07 11:52:22;;;;;;;2.73;0.80;;;;;;;;;;5066688;28;20230;-81
2022/06/07 11:54:54;;;;;;;1.97;0.70;;;;;;;;;;5066921;28;20214;-81
2022/06/07 11:57:25;;;;;;;1.27;0.80;;;;;;;;;;5071839;28;20199;-80
2022/06/07 11:59:54;;;;;;;2.73;1.00;;;;;;;;;;5067600;28;20245;-81
2022/06/07 12:02:24;;;;;;;1.80;0.83;;;;;;;;;;5068685;28;20625;-80
2022/06/07 12:04:59;;;;;;;2.53;0.70;;;;;;;;;;5065394;28;20208;-80
2022/06/07 12:07:33;;;;;;;1.43;0.50;;;;;;;;;;5061096;28;20217;-81
2022/06/07 12:10:19;;;;;;;3.20;0.80;;;;;;;;;;5064513;28;20210;-80
2022/06/07 12:12:48;;;;;;;0.97;0.70;;;;;;;;;;5062671;28;20712;-80
2022/06/07 12:15:18;;;;;;;3.37;0.57;;;;;;;;;;5068731;28;20195;-80
2022/06/07 12:17:53;;;;;;;2.43;0.70;;;;;;;;;;5066459;28;20191;-81
2022/06/07 12:20:25;;;;;;;2.53;0.73;;;;;;;;;;5068786;28;20213;-81
2022/06/07 12:22:56;;;;;;;1.53;0.70;;;;;;;;;;5069383;28;20226;-81
2022/06/07 12:25:26;;;;;;;0.97;0.60;;;;;;;;;;5071508;28;20202;-81
2022/06/07 12:27:54;;;;;;;2.47;0.80;;;;;;;;;;5070871;28;20223;-81
2022/06/07 12:30:24;;;;;;;3.47;0.70;;;;;;;;;;5071662;28;20796;-81
2022/06/07 12:32:54;;;;;;;6.47;0.80;;;;;;;;;;5067713;28;20278;-81
2022/06/07 12:35:23;;;;;;;4.60;0.90;;;;;;;;;;5073401;28;20209;-81
2022/06/07 12:37:52;;;;;;;4.37;0.97;;;;;;;;;;5072148;28;20262;-81
2022/06/07 12:40:35;;;;;;;2.13;0.70;;;;;;;;;;5071024;28;20674;-81
2022/06/07 12:43:03;;;;;;;2.47;0.70;;;;;;;;;;5071480;28;20629;-82
2022/06/07 12:45:33;;;;;;;1.43;0.60;;;;;;;;;;5069200;28;20191;-82
2022/06/07 12:48:02;;;;;;;3.20;0.87;;;;;;;;;;5070150;28;20227;-83
2022/06/07 12:50:31;;;;;;;2.37;0.87;;;;;;;;;;5069114;28;20206;-82
2022/06/07 12:52:58;;;;;;;2.60;0.70;;;;;;;;;;5086790;28;20246;-79
2022/06/07 12:55:28;;;;;;;2.37;0.60;;;;;;;;;;5089175;28;20184;-81
2022/06/07 12:57:58;;;;;;;1.43;0.80;;;;;;;;;;5080294;28;20217;-81
2022/06/07 13:00:26;;;;;;;0.77;0.50;;;;;;;;;;5072444;28;20658;-82
2022/06/07 13:02:54;;;;;;;7.10;0.83;;;;;;;;;;5073261;28;20257;-82
2022/06/07 13:05:25;;;;;;;2.30;0.90;;;;;;;;;;5070235;28;20275;-81
2022/06/07 13:07:53;;;;;;;3.90;0.60;;;;;;;;;;5069952;28;20214;-81
2022/06/07 13:10:22;;;;;;;1.70;0.63;;;;;;;;;;5070962;28;20252;-81
2022/06/07 13:12:51;;;;;;;2.63;0.63;;;;;;;;;;5073258;28;20255;-82
2022/06/07 13:15:21;;;;;;;1.67;0.83;;;;;;;;;;5070307;28;20617;-82
2022/06/07 13:17:56;;;;;;;5.23;0.90;;;;;;;;;;5067194;28;22058;-82
2022/06/07 13:20:25;;;;;;;0.70;0.60;;;;;;;;;;5068084;28;20218;-81
2022/06/07 13:22:52;;;;;;;0.70;0.63;;;;;;;;;;5066892;28;20289;-81
2022/06/07 13:25:21;;;;;;;6.33;0.80;;;;;;;;;;5066492;28;20233;-81
2022/06/07 13:27:51;;;;;;;2.20;0.80;;;;;;;;;;5067004;28;20276;-82
2022/06/07 13:30:27;;;;;;;5.00;0.80;;;;;;;;;;5075335;28;20241;-82
2022/06/07 13:33:04;;;;;;;6.10;0.83;;;;;;;;;;5071645;28;20237;-82
2022/06/07 13:35:40;;;;;;;5.80;0.90;;;;;;;;;;5074320;28;20309;-82
2022/06/07 13:38:20;;;;;;;9.07;0.83;;;;;;;;;;5073896;28;20209;-82
2022/06/07 13:40:47;;;;;;;2.60;0.90;;;;;;;;;;5076165;28;20214;-81
2022/06/07 13:43:17;;;;;;;1.60;0.87;;;;;;;;;;5071708;28;20631;-82
2022/06/07 13:45:49;;;;;;;1.90;0.90;;;;;;;;;;5071318;28;20202;-81
2022/06/07 13:48:19;;;;;;;3.80;0.87;;;;;;;;;;5070353;28;20250;-81
2022/06/07 13:53:48;;;;;;;1.77;0.70;;;;;;;;;;5070757;28;20210;-82
2022/06/07 13:56:17;;;;;;;2.37;0.90;;;;;;;;;;5070721;28;20563;-82
2022/06/07 13:58:50;;;;;;;2.03;0.70;;;;;;;;;;5071570;28;20210;-82
2022/06/07 14:01:21;;;;;;;4.67;0.63;;;;;;;;;;5074236;28;20341;-82
2022/06/07 14:03:49;;;;;;;1.73;0.80;;;;;;;;;;5071507;28;20206;-82
2022/06/07 14:06:21;;;;;;;3.67;0.90;;;;;;;;;;5072944;28;20210;-82
2022/06/07 14:08:49;;;;;;;2.17;0.80;;;;;;;;;;5077149;28;21005;-82
2022/06/07 14:11:16;;;;;;;1.10;0.70;;;;;;;;;;5069511;28;20650;-82
2022/06/07 14:13:44;;;;;;;2.40;0.93;;;;;;;;;;5074110;28;20202;-82
2022/06/07 14:16:15;;;;;;;1.33;1.10;;;;;;;;;;5069996;28;20245;-81
2022/06/07 14:18:46;;;;;;;1.57;0.70;;;;;;;;;;5075877;28;20194;-81
2022/06/07 14:21:15;;;;;;;7.00;1.20;;;;;;;;;;5075561;28;20249;-82
2022/06/07 14:23:44;;;;;;;5.30;0.80;;;;;;;;;;5101757;28;20228;-82
2022/06/07 14:26:14;;;;;;;2.20;0.73;;;;;;;;;;5088847;28;20208;-83
2022/06/07 14:28:41;;;;;;;1.20;0.67;;;;;;;;;;5086844;28;20718;-82
2022/06/07 14:31:16;;;;;;;3.13;1.00;;;;;;;;;;5074584;28;20226;-82
2022/06/07 14:33:45;;;;;;;2.53;0.70;;;;;;;;;;5075492;28;20274;-82
2022/06/07 14:36:14;;;;;;;2.50;1.00;;;;;;;;;;5072713;28;20270;-82
2022/06/07 14:38:41;;;;;;;4.17;0.93;;;;;;;;;;5071702;28;20255;-81
2022/06/07 14:41:08;;;;;;;5.23;1.10;;;;;;;;;;5071077;28;20249;-82
2022/06/07 14:43:37;;;;;;;1.60;0.80;;;;;;;;;;5072498;28;20677;-82
2022/06/07 14:46:06;;;;;;;5.17;1.20;;;;;;;;;;5069106;28;20198;-82
2022/06/07 14:48:36;;;;;;;3.10;1.10;;;;;;;;;;5071873;28;20739;-81
2022/06/07 14:51:17;;;;;;;2.27;1.00;;;;;;;;;;5073335;28;20279;-83
2022/06/07 14:53:45;;;;;;;2.60;1.20;;;;;;;;;;5074278;28;20210;-82
2022/06/07 14:56:22;;;;;;;6.87;1.10;;;;;;;;;;5070682;28;20902;-82
2022/06/07 14:58:52;;;;;;;5.90;1.30;;;;;;;;;;5072196;28;20279;-81
2022/06/07 15:01:20;;;;;;;4.80;1.10;;;;;;;;;;5068756;28;20218;-82
2022/06/07 15:03:52;;;;;;;3.53;1.50;;;;;;;;;;5071411;28;20206;-82
2022/06/07 15:06:25;;;;;;;3.43;1.30;;;;;;;;;;5063285;28;20573;-81
2022/06/07 15:08:54;;;;;;;3.73;1.27;;;;;;;;;;5068615;28;20659;-81
2022/06/07 15:11:29;;;;;;;2.73;1.00;;;;;;;;;;5070965;28;20295;-81
2022/06/07 15:13:59;;;;;;;3.13;1.40;;;;;;;;;;5076547;28;20206;-85
2022/06/07 15:16:27;;;;;;;2.60;1.17;;;;;;;;;;5067673;28;20198;-82
2022/06/07 15:18:55;;;;;;;10.37;1.43;;;;;;;;;;5067479;28;20218;-84
2022/06/07 15:21:25;;;;;;;6.57;1.40;;;;;;;;;;5072687;28;20315;-83